Time;durP1;ratioP1;P1;durP2;ratioP2;P2;SDS_P1;SDS_P2;PMS_P1;PMS_P2;Temp;Humidity;BMP_temperature;BMP_pressure;BME280_temperature;BME280_humidity;BME280_pressure;Samples;Min_cycle;Max_cycle;Signal;HPM_P1;HPM_P2
2023/04/26 00:00:08;;;;;;;16.48;9.50;;;;;;;14.65;100.00;96223.25;4955424;28;20079;-63
2023/04/26 00:02:37;;;;;;;21.48;13.68;;;;;;;14.45;100.00;96225.47;4954224;28;20515;-61
2023/04/26 00:05:07;;;;;;;9.88;4.88;;;;;;;14.46;100.00;96213.88;4943336;28;20071;-62
2023/04/26 00:07:38;;;;;;;11.82;5.32;;;;;;;14.69;100.00;96216.56;4945487;28;20082;-62
2023/04/26 00:10:07;;;;;;;10.17;5.37;;;;;;;14.83;100.00;96220.31;4946633;28;20086;-61
2023/04/26 00:12:36;;;;;;;9.45;5.07;;;;;;;14.56;100.00;96209.22;4950544;28;20078;-62
2023/04/26 00:15:05;;;;;;;9.02;4.75;;;;;;;14.80;100.00;96207.41;4947877;28;20082;-62
2023/04/26 00:17:33;;;;;;;10.60;5.28;;;;;;;14.85;100.00;96208.50;4953438;28;20514;-62
2023/04/26 00:20:03;;;;;;;12.23;5.05;;;;;;;13.67;100.00;96215.72;4952923;28;20087;-63
2023/04/26 00:22:31;;;;;;;10.73;4.82;;;;;;;14.61;100.00;96214.00;4953380;28;20082;-62
2023/04/26 00:25:01;;;;;;;8.55;4.45;;;;;;;14.95;100.00;96209.09;4949595;28;20151;-62
2023/04/26 00:27:29;;;;;;;11.95;5.75;;;;;;;14.34;100.00;96215.28;4946437;28;20231;-62
2023/04/26 00:29:58;;;;;;;9.55;4.75;;;;;;;14.32;100.00;96209.34;4947982;28;20461;-63
2023/04/26 00:32:26;;;;;;;16.45;7.32;;;;;;;14.55;100.00;96210.19;4948980;28;20479;-62
2023/04/26 00:34:54;;;;;;;7.93;4.30;;;;;;;14.69;100.00;96216.56;4951675;28;20047;-63
2023/04/26 00:37:23;;;;;;;13.27;6.68;;;;;;;14.08;100.00;96207.63;4945686;28;20095;-62
2023/04/26 00:39:51;;;;;;;8.52;4.80;;;;;;;14.60;100.00;96196.44;4951436;28;20090;-63
2023/04/26 00:42:21;;;;;;;10.93;5.35;;;;;;;15.09;100.00;96201.34;4943124;28;20118;-63
2023/04/26 00:44:54;;;;;;;8.70;4.22;;;;;;;14.62;100.00;96199.72;4949732;28;20088;-63
2023/04/26 00:47:22;;;;;;;10.98;5.00;;;;;;;14.45;100.00;96212.22;4953859;28;20473;-63
2023/04/26 00:49:50;;;;;;;9.65;5.03;;;;;;;14.53;100.00;96211.41;4951091;28;20086;-62
2023/04/26 00:52:18;;;;;;;13.73;5.95;;;;;;;13.85;100.00;96218.16;4952823;28;20098;-63
2023/04/26 00:54:48;;;;;;;13.10;6.05;;;;;;;14.63;100.00;96209.34;4949092;28;20082;-63
2023/04/26 00:57:16;;;;;;;10.38;5.13;;;;;;;14.38;100.00;96209.47;4950156;28;20087;-62
2023/04/26 00:59:46;;;;;;;12.30;5.00;;;;;;;14.75;100.00;96212.41;4952491;28;20514;-63
2023/04/26 01:02:14;;;;;;;14.00;5.57;;;;;;;14.09;100.00;96215.41;4951236;28;20083;-63
2023/04/26 01:04:44;;;;;;;13.63;6.68;;;;;;;14.14;100.00;96222.81;4953221;28;20095;-63
2023/04/26 01:07:12;;;;;;;11.73;5.70;;;;;;;14.14;100.00;96218.38;4958932;28;20704;-63
2023/04/26 01:09:41;;;;;;;14.20;6.15;;;;;;;14.03;100.00;96205.47;4958971;28;20074;-63
2023/04/26 01:12:11;;;;;;;15.35;7.07;;;;;;;14.30;100.00;96214.78;4953707;28;20086;-62
2023/04/26 01:14:39;;;;;;;12.57;5.88;;;;;;;13.66;100.00;96214.91;4945072;28;20554;-63
2023/04/26 01:17:09;;;;;;;12.98;6.90;;;;;;;14.15;100.00;96214.72;4952968;28;20086;-62
2023/04/26 01:19:47;;;;;;;13.52;6.47;;;;;;;14.41;100.00;96218.88;4948890;28;20203;-63
2023/04/26 01:22:15;;;;;;;20.02;8.95;;;;;;;13.76;100.00;96226.13;4956172;28;20460;-63
2023/04/26 01:24:47;;;;;;;20.70;11.50;;;;;;;13.84;100.00;96219.97;4950662;28;20078;-63
2023/04/26 01:27:16;;;;;;;16.50;8.75;;;;;;;13.34;100.00;96218.41;4951859;28;20082;-63
2023/04/26 01:29:45;;;;;;;15.25;7.47;;;;;;;14.30;100.00;96229.88;4953928;28;20078;-63
2023/04/26 01:32:13;;;;;;;19.38;8.25;;;;;;;13.38;100.00;96221.56;4956577;28;20090;-63
2023/04/26 01:34:41;;;;;;;23.33;11.45;;;;;;;14.20;100.00;96222.13;4955212;28;20075;-63
2023/04/26 01:37:10;;;;;;;11.27;5.97;;;;;;;14.47;100.00;96223.50;4946615;28;20074;-62
2023/04/26 01:39:38;;;;;;;11.85;6.45;;;;;;;14.19;100.00;96226.63;4951507;28;20476;-61
2023/04/26 01:42:08;;;;;;;21.55;10.52;;;;;;;14.08;100.00;96224.34;4952596;28;20152;-62
2023/04/26 01:44:36;;;;;;;16.95;7.53;;;;;;;13.79;100.00;96224.94;4959854;28;20074;-63
2023/04/26 01:47:05;;;;;;;13.98;7.70;;;;;;;14.07;100.00;96235.13;4956177;28;20078;-63
2023/04/26 01:49:33;;;;;;;16.63;8.20;;;;;;;14.20;100.00;96230.91;4948752;28;20074;-62
2023/04/26 01:52:02;;;;;;;16.05;8.40;;;;;;;14.45;100.00;96226.34;4951293;28;20150;-63
2023/04/26 01:54:30;;;;;;;15.55;7.38;;;;;;;14.00;100.00;96227.88;4952646;28;20070;-63
2023/04/26 01:56:58;;;;;;;15.38;7.25;;;;;;;13.85;100.00;96234.88;4956794;28;20090;-62
2023/04/26 01:59:28;;;;;;;25.60;11.85;;;;;;;13.65;100.00;96229.13;4945508;28;20083;-63
2023/04/26 02:01:56;;;;;;;14.27;7.33;;;;;;;13.17;100.00;96241.41;4952302;28;20117;-62
2023/04/26 02:04:25;;;;;;;23.75;10.38;;;;;;;13.42;100.00;96231.66;4944868;28;20102;-63
2023/04/26 02:06:53;;;;;;;16.13;8.07;;;;;;;13.23;100.00;96238.09;4951108;28;20479;-63
2023/04/26 02:09:22;;;;;;;22.13;10.60;;;;;;;12.84;100.00;96237.94;4951628;28;20480;-63
2023/04/26 02:11:50;;;;;;;15.38;7.70;;;;;;;13.51;100.00;96228.00;4951761;28;20090;-63
2023/04/26 02:14:19;;;;;;;26.50;13.60;;;;;;;12.72;100.00;96237.41;4946131;28;20570;-62
2023/04/26 02:16:48;;;;;;;13.13;7.30;;;;;;;13.59;100.00;96232.44;4952708;28;20083;-63
2023/04/26 02:19:17;;;;;;;23.23;11.32;;;;;;;12.71;100.00;96245.53;4954893;28;20074;-63
2023/04/26 02:21:52;;;;;;;24.25;10.75;;;;;;;13.41;100.00;96237.13;4948131;28;20484;-63
2023/04/26 02:24:21;;;;;;;17.38;8.00;;;;;;;12.90;100.00;96242.53;4953018;28;20083;-62
2023/04/26 02:26:50;;;;;;;15.88;8.30;;;;;;;13.10;100.00;96240.41;4943639;28;20148;-63
2023/04/26 02:29:19;;;;;;;18.58;9.13;;;;;;;12.41;100.00;96228.41;4953754;28;20094;-63
2023/04/26 02:32:05;;;;;;;12.07;5.88;;;;;;;13.05;100.00;96238.28;4952908;28;20101;-62
2023/04/26 02:34:33;;;;;;;12.20;5.72;;;;;;;13.07;100.00;96236.28;4952900;28;20083;-63
2023/04/26 02:37:03;;;;;;;11.85;5.35;;;;;;;13.39;100.00;96233.81;4952050;28;20082;-63
2023/04/26 02:39:31;;;;;;;13.98;6.95;;;;;;;13.37;100.00;96233.97;4950788;28;20101;-63
2023/04/26 02:41:59;;;;;;;12.80;6.00;;;;;;;13.15;100.00;96230.16;4950452;28;20067;-63
2023/04/26 02:44:29;;;;;;;14.50;7.13;;;;;;;13.57;100.00;96228.31;4948775;28;20095;-62
2023/04/26 02:46:58;;;;;;;12.52;6.40;;;;;;;13.57;100.00;96231.78;4949186;28;20094;-63
2023/04/26 02:49:28;;;;;;;13.63;6.80;;;;;;;13.78;100.00;96228.59;4942883;28;20083;-63
2023/04/26 02:51:56;;;;;;;9.38;5.43;;;;;;;13.38;100.00;96229.50;4957840;28;20550;-62
2023/04/26 02:54:24;;;;;;;20.27;8.30;;;;;;;13.37;100.00;96226.03;4950688;28;20079;-62
2023/04/26 02:56:54;;;;;;;12.95;6.85;;;;;;;12.98;100.00;96229.34;4943349;28;20102;-63
2023/04/26 02:59:22;;;;;;;20.00;8.05;;;;;;;13.46;100.00;96221.56;4952620;28;20086;-62
2023/04/26 03:01:50;;;;;;;15.38;7.55;;;;;;;13.34;100.00;96218.41;4951415;28;20113;-62
2023/04/26 03:04:19;;;;;;;18.80;8.98;;;;;;;13.62;100.00;96213.56;4950320;28;20487;-62
2023/04/26 03:06:49;;;;;;;16.27;7.10;;;;;;;13.86;100.00;96219.78;4950762;28;20051;-61
2023/04/26 03:09:17;;;;;;;16.10;7.57;;;;;;;13.15;100.00;96224.06;4944779;28;20484;-62
2023/04/26 03:11:46;;;;;;;17.42;8.45;;;;;;;13.21;100.00;96223.34;4952474;28;20495;-62
2023/04/26 03:14:17;;;;;;;19.40;8.85;;;;;;;13.35;100.00;96230.69;4946165;28;20097;-61
2023/04/26 03:16:47;;;;;;;19.92;7.47;;;;;;;12.81;100.00;96235.63;4946870;28;20525;-62
2023/04/26 03:19:15;;;;;;;16.58;7.32;;;;;;;13.07;100.00;96243.38;4949482;28;20075;-62
2023/04/26 03:21:43;;;;;;;14.82;7.63;;;;;;;13.29;100.00;96245.41;4950614;28;20090;-62
2023/04/26 03:24:13;;;;;;;27.17;9.52;;;;;;;12.99;100.00;96243.41;4953102;28;20098;-63
2023/04/26 03:26:41;;;;;;;16.48;8.20;;;;;;;12.95;100.00;96245.53;4948267;28;20085;-62
2023/04/26 03:29:11;;;;;;;14.48;6.93;;;;;;;12.77;100.00;96244.88;4948225;28;20102;-62
2023/04/26 03:31:39;;;;;;;25.77;13.27;;;;;;;12.67;100.00;96252.97;4944318;28;20473;-62
2023/04/26 03:34:08;;;;;;;16.88;10.48;;;;;;;12.93;100.00;96241.41;4946724;28;20534;-62
2023/04/26 03:36:37;;;;;;;24.35;16.23;;;;;;;12.85;100.00;96241.41;4952857;28;20066;-62
2023/04/26 03:39:05;;;;;;;25.50;16.83;;;;;;;12.87;100.00;96250.84;4945848;28;20570;-63
2023/04/26 03:41:38;;;;;;;29.52;19.67;;;;;;;13.31;100.00;96250.53;4949714;28;20539;-63
2023/04/26 03:44:06;;;;;;;23.17;13.07;;;;;;;13.33;100.00;96245.09;4948396;28;20090;-63
2023/04/26 03:46:35;;;;;;;33.08;18.20;;;;;;;12.94;100.00;96253.63;4955376;28;20470;-63
2023/04/26 03:49:03;;;;;;;19.40;11.60;;;;;;;12.95;100.00;96250.84;4948418;28;20087;-62
2023/04/26 03:51:31;;;;;;;32.03;18.75;;;;;;;13.02;100.00;96249.19;4948954;28;20113;-63
2023/04/26 03:54:00;;;;;;;25.25;14.90;;;;;;;12.84;100.00;96248.53;4951461;28;20078;-63
2023/04/26 03:56:28;;;;;;;32.78;17.23;;;;;;;12.99;100.00;96253.97;4947144;28;20459;-63
2023/04/26 03:58:58;;;;;;;20.08;11.45;;;;;;;13.47;100.00;96247.88;4951233;28;20574;-63
2023/04/26 04:01:26;;;;;;;29.48;15.25;;;;;;;13.73;100.00;96246.84;4955023;28;20094;-63
2023/04/26 04:03:55;;;;;;;38.80;21.15;;;;;;;13.26;100.00;96253.69;4947386;28;20089;-61
2023/04/26 04:06:24;;;;;;;33.95;16.05;;;;;;;13.52;100.00;96252.66;4955254;28;20083;-62
2023/04/26 04:08:52;;;;;;;26.30;12.30;;;;;;;13.63;100.00;96256.81;4952026;28;20078;-63
2023/04/26 04:11:21;;;;;;;32.97;15.63;;;;;;;13.89;100.00;96256.56;4951361;28;20083;-63
2023/04/26 04:13:50;;;;;;;26.55;13.90;;;;;;;14.04;100.00;96260.16;4946481;28;20137;-63
2023/04/26 04:16:20;;;;;;;32.15;16.23;;;;;;;14.52;100.00;96255.69;4946339;28;20082;-62
2023/04/26 04:18:49;;;;;;;22.17;10.30;;;;;;;13.87;100.00;96253.28;4946534;28;20662;-62
2023/04/26 04:21:17;;;;;;;27.58;15.27;;;;;;;13.70;100.00;96258.59;4948267;28;20125;-63
2023/04/26 04:23:46;;;;;;;15.68;10.98;;;;;;;13.21;100.00;96271.03;4949930;28;20087;-63
2023/04/26 04:26:15;;;;;;;27.65;13.57;;;;;;;13.41;100.00;96269.72;4945204;28;20074;-62
2023/04/26 04:28:44;;;;;;;23.27;15.85;;;;;;;12.77;100.00;96276.63;4943252;28;20803;-63
2023/04/26 04:31:12;;;;;;;21.33;10.23;;;;;;;13.34;100.00;96270.56;4952326;28;20654;-62
2023/04/26 04:33:42;;;;;;;17.85;9.88;;;;;;;13.69;100.00;96270.19;4943725;28;20090;-63
2023/04/26 04:36:10;;;;;;;20.23;11.10;;;;;;;13.04;100.00;96271.03;4947618;28;20071;-63
2023/04/26 04:38:39;;;;;;;21.35;9.35;;;;;;;13.77;100.00;96267.53;4949952;28;20089;-62
2023/04/26 04:41:07;;;;;;;22.10;10.15;;;;;;;13.55;100.00;96270.88;4948035;28;20124;-62
2023/04/26 04:43:36;;;;;;;19.40;10.65;;;;;;;12.91;100.00;96275.97;4945815;28;20292;-61
2023/04/26 04:46:04;;;;;;;15.45;8.73;;;;;;;13.27;100.00;96278.34;4954178;28;20090;-62
2023/04/26 04:48:32;;;;;;;35.75;23.23;;;;;;;12.84;100.00;96290.84;4955331;28;20074;-62
2023/04/26 04:51:02;;;;;;;17.42;12.75;;;;;;;13.08;100.00;96284.78;4952812;28;20105;-61
2023/04/26 04:53:31;;;;;;;34.25;20.70;;;;;;;12.76;100.00;96293.47;4945304;28;20087;-62
2023/04/26 04:55:59;;;;;;;23.65;12.98;;;;;;;12.88;100.00;96294.84;4946772;28;20082;-61
2023/04/26 04:58:27;;;;;;;33.50;22.50;;;;;;;12.48;100.00;96292.91;4948357;28;20613;-62
2023/04/26 05:00:59;;;;;;;24.45;11.35;;;;;;;12.44;100.00;96302.16;4950881;28;20494;-62
2023/04/26 05:03:28;;;;;;;26.38;10.82;;;;;;;12.93;100.00;96305.75;4954181;28;20094;-62
2023/04/26 05:05:57;;;;;;;23.17;12.10;;;;;;;12.76;100.00;96304.88;4951120;28;20078;-62
2023/04/26 05:08:26;;;;;;;25.38;13.48;;;;;;;12.65;100.00;96304.38;4948853;28;20083;-62
2023/04/26 05:10:55;;;;;;;15.82;8.40;;;;;;;12.45;100.00;96311.75;4949860;28;20094;-62
2023/04/26 05:13:24;;;;;;;40.80;25.35;;;;;;;12.27;100.00;96311.84;4949179;28;20090;-62
2023/04/26 05:15:52;;;;;;;15.77;9.45;;;;;;;12.46;100.00;96305.47;4947936;28;20070;-62
2023/04/26 05:18:21;;;;;;;26.70;13.50;;;;;;;12.86;100.00;96317.97;4945126;28;20083;-62
2023/04/26 05:20:49;;;;;;;13.43;6.80;;;;;;;12.89;100.00;96322.94;4947084;28;20083;-62
2023/04/26 05:23:17;;;;;;;10.88;5.75;;;;;;;12.96;100.00;96316.00;4945187;28;20113;-61
2023/04/26 05:25:47;;;;;;;20.08;8.82;;;;;;;13.50;100.00;96312.94;4948051;28;20558;-62
2023/04/26 05:28:15;;;;;;;13.57;6.35;;;;;;;12.97;100.00;96322.97;4948116;28;20093;-62
2023/04/26 05:30:43;;;;;;;26.23;11.85;;;;;;;12.71;100.00;96324.91;4952279;28;20486;-60
2023/04/26 05:33:12;;;;;;;19.38;9.13;;;;;;;12.79;100.00;96319.59;4956338;28;20090;-61
2023/04/26 05:35:40;;;;;;;14.55;6.47;;;;;;;13.22;100.00;96323.84;4958663;28;20094;-61
2023/04/26 05:38:09;;;;;;;11.00;5.65;;;;;;;13.42;100.00;96328.81;4947466;28;20075;-62
2023/04/26 05:40:37;;;;;;;15.15;6.53;;;;;;;13.43;100.00;96318.06;4955955;28;20098;-62
2023/04/26 05:43:07;;;;;;;12.85;6.18;;;;;;;13.01;100.00;96329.59;4955059;28;20456;-62
2023/04/26 05:45:35;;;;;;;12.65;6.30;;;;;;;13.20;100.00;96331.09;4952141;28;20536;-61
2023/04/26 05:48:04;;;;;;;20.67;9.65;;;;;;;13.07;100.00;96333.41;4951058;28;20078;-62
2023/04/26 05:50:32;;;;;;;31.90;15.95;;;;;;;13.85;100.00;96329.47;4953519;28;20107;-62
2023/04/26 05:53:00;;;;;;;21.70;9.20;;;;;;;13.08;100.00;96324.47;4948960;28;20082;-62
2023/04/26 05:55:29;;;;;;;29.80;17.10;;;;;;;13.16;100.00;96332.41;4955009;28;20087;-61
2023/04/26 05:57:58;;;;;;;30.52;17.65;;;;;;;13.95;100.00;96330.94;4949792;28;20113;-61
2023/04/26 06:00:27;;;;;;;23.33;13.68;;;;;;;13.70;100.00;96330.16;4959787;28;20091;-62
2023/04/26 06:02:56;;;;;;;22.67;12.48;;;;;;;13.51;100.00;96336.59;4958472;28;20082;-62
2023/04/26 06:05:24;;;;;;;23.30;12.93;;;;;;;13.45;100.00;96334.63;4949980;28;20094;-61
2023/04/26 06:07:53;;;;;;;25.88;15.35;;;;;;;13.99;100.00;96336.72;4955808;28;20093;-62
2023/04/26 06:10:21;;;;;;;20.73;11.18;;;;;;;13.82;100.00;96341.22;4953051;28;20094;-62
2023/04/26 06:12:50;;;;;;;21.50;12.88;;;;;;;14.29;100.00;96344.94;4932349;28;20074;-62
2023/04/26 06:15:18;;;;;;;16.58;8.57;;;;;;;14.43;100.00;96345.06;4956084;28;20102;-61
2023/04/26 06:17:48;;;;;;;23.08;12.05;;;;;;;14.75;100.00;96342.47;4951307;28;20089;-61
2023/04/26 06:20:16;;;;;;;23.10;10.00;;;;;;;13.43;100.00;96356.97;4951860;28;20090;-61
2023/04/26 06:22:44;;;;;;;15.77;9.45;;;;;;;13.90;100.00;96357.13;4952741;28;20086;-62
2023/04/26 06:25:13;;;;;;;16.48;8.35;;;;;;;14.29;100.00;96350.25;4953085;28;20093;-61
2023/04/26 06:27:41;;;;;;;13.43;7.47;;;;;;;14.02;100.00;96352.31;4951925;28;20086;-62
2023/04/26 06:30:10;;;;;;;15.85;8.60;;;;;;;14.20;100.00;96338.81;4954060;28;20706;-64
2023/04/26 06:32:40;;;;;;;19.60;9.75;;;;;;;14.46;100.00;96339.41;4950675;28;20098;-62
2023/04/26 06:35:10;;;;;;;17.38;7.72;;;;;;;14.96;100.00;96340.03;4952530;28;20098;-62
2023/04/26 06:37:39;;;;;;;19.00;10.35;;;;;;;14.23;100.00;96341.97;4946560;28;20094;-61
2023/04/26 06:40:08;;;;;;;17.13;8.80;;;;;;;14.56;100.00;96349.03;4951369;28;20095;-62
2023/04/26 06:42:36;;;;;;;25.30;13.50;;;;;;;14.52;97.67;96343.25;4948148;28;20086;-61
2023/04/26 06:45:06;;;;;;;21.00;10.07;;;;;;;15.25;89.17;96346.50;4946174;28;20098;-62
2023/04/26 06:47:34;;;;;;;19.73;10.02;;;;;;;15.35;98.72;96344.44;4953181;28;20091;-62
2023/04/26 06:50:03;;;;;;;25.50;10.23;;;;;;;15.97;98.52;96349.59;4946241;28;20079;-62
2023/04/26 06:52:33;;;;;;;30.20;13.90;;;;;;;16.02;75.53;96349.06;4947439;28;20625;-62
2023/04/26 06:55:02;;;;;;;10.18;4.75;;;;;;;16.00;70.53;96351.91;4947565;28;20515;-63
2023/04/26 06:57:30;;;;;;;14.23;7.00;;;;;;;16.03;78.55;96358.69;4947910;28;20079;-62
2023/04/26 06:59:58;;;;;;;17.92;6.28;;;;;;;15.99;69.29;96360.88;4944393;28;20086;-62
2023/04/26 07:02:27;;;;;;;14.02;5.55;;;;;;;15.70;74.60;96358.16;4949275;28;20091;-62
2023/04/26 07:04:56;;;;;;;14.05;6.90;;;;;;;16.87;69.12;96353.94;4952899;28;20733;-64
2023/04/26 07:07:25;;;;;;;20.65;10.30;;;;;;;17.20;59.63;96356.16;4959291;28;20081;-63
2023/04/26 07:09:54;;;;;;;9.80;4.88;;;;;;;17.77;60.43;96350.78;4957576;28;20129;-62
2023/04/26 07:12:23;;;;;;;9.33;4.17;;;;;;;16.99;62.16;96359.59;4962756;28;20113;-63
2023/04/26 07:14:51;;;;;;;8.63;5.00;;;;;;;16.57;65.63;96358.44;4963371;28;20089;-62
2023/04/26 07:17:20;;;;;;;8.93;4.70;;;;;;;17.17;65.22;96356.53;4955999;28;20101;-62
2023/04/26 07:19:48;;;;;;;9.50;4.88;;;;;;;16.06;65.20;96366.28;4948165;28;20079;-62
2023/04/26 07:22:16;;;;;;;12.57;6.10;;;;;;;16.55;68.22;96355.97;4944780;28;20079;-63
2023/04/26 07:24:45;;;;;;;14.85;6.68;;;;;;;17.03;66.97;96345.75;4952740;28;20102;-63
2023/04/26 07:27:15;;;;;;;10.40;5.10;;;;;;;17.61;57.75;96342.19;4948050;28;20090;-64
2023/04/26 07:29:43;;;;;;;11.63;4.70;;;;;;;17.72;59.96;96342.53;4942811;28;20086;-60
2023/04/26 07:32:12;;;;;;;11.23;5.63;;;;;;;17.46;52.70;96353.75;4946584;28;20501;-60
2023/04/26 07:34:40;;;;;;;10.38;4.80;;;;;;;17.51;56.11;96347.84;4947864;28;20075;-63
2023/04/26 07:37:09;;;;;;;8.80;3.95;;;;;;;17.03;57.94;96351.06;4947302;28;20572;-60
2023/04/26 07:39:37;;;;;;;15.13;6.88;;;;;;;17.11;53.09;96342.13;4945628;28;20079;-61
2023/04/26 07:42:06;;;;;;;12.40;4.30;;;;;;;17.78;51.05;96344.44;4952092;28;20094;-60
2023/04/26 07:44:35;;;;;;;12.60;4.85;;;;;;;18.63;48.52;96337.19;4951918;28;20090;-60
2023/04/26 07:47:04;;;;;;;11.05;4.68;;;;;;;18.38;49.90;96338.72;4951504;28;20085;-61
2023/04/26 07:49:32;;;;;;;10.90;4.35;;;;;;;18.27;49.88;96337.41;4953937;28;20447;-60
2023/04/26 07:52:01;;;;;;;9.52;4.43;;;;;;;18.13;49.08;96349.81;4944832;28;20085;-61
2023/04/26 07:54:29;;;;;;;10.88;5.35;;;;;;;18.09;50.41;96345.09;4958585;28;20098;-60
2023/04/26 07:56:58;;;;;;;12.23;4.80;;;;;;;18.54;48.94;96341.03;4956152;28;20136;-61
2023/04/26 07:59:26;;;;;;;15.95;6.40;;;;;;;18.64;46.82;96343.38;4956805;28;20086;-60
2023/04/26 08:01:56;;;;;;;6.50;4.07;;;;;;;19.27;46.85;96345.88;4959160;28;20078;-60
2023/04/26 08:04:31;;;;;;;8.95;3.60;;;;;;;19.26;45.98;96342.38;4951826;28;20082;-61
2023/04/26 08:07:01;;;;;;;7.68;3.90;;;;;;;19.37;43.62;96346.31;4953537;28;20085;-62
2023/04/26 08:09:29;;;;;;;9.05;4.50;;;;;;;19.25;44.88;96339.94;4952267;28;20090;-61
2023/04/26 08:11:58;;;;;;;10.85;4.70;;;;;;;17.87;46.62;96353.13;4952302;28;20090;-62
2023/04/26 08:14:27;;;;;;;8.88;4.25;;;;;;;19.60;42.84;96338.75;4949921;28;20089;-62
2023/04/26 08:16:57;;;;;;;10.38;3.97;;;;;;;19.29;44.47;96346.50;4954822;28;20089;-62
2023/04/26 08:19:25;;;;;;;9.80;4.30;;;;;;;19.31;44.23;96342.63;4956849;28;20089;-62
2023/04/26 08:21:53;;;;;;;10.52;3.58;;;;;;;18.90;46.32;96343.53;4957538;28;20093;-62
2023/04/26 08:24:22;;;;;;;8.75;3.88;;;;;;;18.32;47.60;96342.16;4955005;28;20095;-62
2023/04/26 08:26:50;;;;;;;12.88;4.50;;;;;;;19.85;43.15;96346.19;4943524;28;20105;-62
2023/04/26 08:29:19;;;;;;;10.02;4.97;;;;;;;19.06;45.11;96347.66;4949105;28;20086;-63
2023/04/26 08:31:47;;;;;;;7.50;3.85;;;;;;;18.57;48.24;96348.66;4942354;28;20094;-62
2023/04/26 08:34:17;;;;;;;12.23;5.40;;;;;;;18.92;47.84;96345.97;4942887;28;20183;-58
2023/04/26 08:36:45;;;;;;;10.13;5.10;;;;;;;18.10;50.81;96352.91;4944099;28;20089;-62
2023/04/26 08:39:14;;;;;;;9.50;4.63;;;;;;;18.47;49.11;96341.00;4950558;28;20082;-62
2023/04/26 08:41:43;;;;;;;8.38;4.78;;;;;;;18.98;48.53;96346.00;4944643;28;20482;-61
2023/04/26 08:44:11;;;;;;;10.25;5.25;;;;;;;18.21;49.71;96348.88;4947128;28;20078;-63
2023/04/26 08:46:46;;;;;;;8.57;4.70;;;;;;;20.04;44.29;96339.22;4947983;28;20085;-62
2023/04/26 08:49:22;;;;;;;10.82;4.78;;;;;;;19.90;44.61;96333.88;4960135;28;20079;-62
2023/04/26 08:51:51;;;;;;;10.38;5.00;;;;;;;19.53;46.82;96331.75;4941196;28;20134;-62
2023/04/26 08:54:20;;;;;;;10.80;4.20;;;;;;;19.19;46.66;96339.69;4941336;28;20075;-62
2023/04/26 08:56:49;;;;;;;7.03;2.45;;;;;;;19.64;44.56;96334.66;4946896;28;20113;-62
2023/04/26 08:59:17;;;;;;;8.18;4.90;;;;;;;20.04;43.75;96339.22;4948447;28;20090;-61
2023/04/26 09:01:46;;;;;;;7.47;3.90;;;;;;;18.55;46.56;96340.03;4944350;28;20154;-62
2023/04/26 09:04:14;;;;;;;9.30;4.90;;;;;;;19.71;43.34;96334.66;4949788;28;20078;-62
2023/04/26 09:06:44;;;;;;;9.95;4.47;;;;;;;19.76;44.86;96332.22;4956431;28;20199;-62
2023/04/26 09:09:13;;;;;;;11.10;5.07;;;;;;;19.96;43.56;96331.38;4955549;28;20093;-60
2023/04/26 09:11:55;;;;;;;11.23;5.57;;;;;;;19.79;43.19;96334.50;4958065;28;20087;-61
2023/04/26 09:14:24;;;;;;;12.43;4.80;;;;;;;20.29;41.56;96329.50;4951857;28;20082;-63
2023/04/26 09:16:53;;;;;;;10.80;4.38;;;;;;;20.19;41.78;96336.31;4946807;28;20083;-60
2023/04/26 09:19:35;;;;;;;5.70;3.17;;;;;;;20.41;42.19;96326.19;4947056;28;20486;-61
2023/04/26 09:22:06;;;;;;;12.25;4.47;;;;;;;20.88;38.62;96325.03;4957496;28;20082;-61
2023/04/26 09:24:46;;;;;;;;;;;;;;;19.80;43.14;96332.63;4962699;28;20086;-62
2023/04/26 09:27:15;;;;;;;8.15;4.13;;;;;;;19.53;43.29;96331.75;4956565;28;19981;-61
2023/04/26 09:29:57;;;;;;;9.77;4.90;;;;;;;19.97;43.04;96330.38;4959964;28;20117;-62
2023/04/26 09:32:26;;;;;;;9.23;4.82;;;;;;;20.83;40.04;96325.66;4959953;28;20487;-61
2023/04/26 09:34:54;;;;;;;6.40;3.88;;;;;;;19.77;43.04;96331.19;4952902;28;20557;-63
2023/04/26 09:37:24;;;;;;;7.70;2.90;;;;;;;18.85;45.67;96334.44;4952798;28;20240;-62
2023/04/26 09:39:52;;;;;;;7.33;3.90;;;;;;;20.03;42.95;96325.00;4957566;28;20079;-61
2023/04/26 09:42:21;;;;;;;7.68;3.53;;;;;;;20.03;39.18;96324.19;4959059;28;20097;-60
2023/04/26 09:44:50;;;;;;;6.85;3.85;;;;;;;20.17;40.60;96328.50;4962982;28;20086;-61
2023/04/26 09:47:22;;;;;;;8.77;3.45;;;;;;;20.78;39.67;96322.78;4958896;28;20547;-61
2023/04/26 09:49:51;;;;;;;7.93;3.88;;;;;;;19.57;43.66;96330.31;4963332;28;20692;-62
2023/04/26 09:52:20;;;;;;;8.73;3.83;;;;;;;18.14;49.11;96337.34;4965838;28;20089;-61
2023/04/26 09:54:51;;;;;;;13.05;4.95;;;;;;;17.70;48.61;96343.72;4967402;28;20102;-62
2023/04/26 09:57:22;;;;;;;14.05;5.70;;;;;;;17.84;56.53;96339.34;4958716;28;20082;-62
2023/04/26 09:59:51;;;;;;;;;;;;;;;17.59;59.60;96342.41;4968736;28;20078;-62
2023/04/26 10:02:23;;;;;;;14.48;6.15;;;;;;;17.80;58.26;96344.25;4956725;28;19969;-61
2023/04/26 10:04:53;;;;;;;15.98;5.35;;;;;;;18.03;57.63;96339.53;4962787;28;20086;-60
2023/04/26 10:07:24;;;;;;;16.25;6.78;;;;;;;18.48;49.63;96329.34;4961455;28;20098;-62
2023/04/26 10:09:54;;;;;;;10.77;5.40;;;;;;;18.91;49.51;96328.31;4968969;28;20089;-62
2023/04/26 10:12:23;;;;;;;12.43;6.38;;;;;;;18.46;52.30;96341.22;4963653;28;20113;-62
2023/04/26 10:14:51;;;;;;;16.38;5.45;;;;;;;19.00;46.63;96337.00;4951900;28;20093;-64
2023/04/26 10:17:20;;;;;;;10.73;4.88;;;;;;;20.59;42.21;96316.47;4960788;28;20093;-63
2023/04/26 10:19:52;;;;;;;7.07;3.80;;;;;;;19.95;45.46;96329.75;4957362;28;20483;-62
2023/04/26 10:22:22;;;;;;;7.95;4.57;;;;;;;19.86;42.20;96319.25;4958943;28;20097;-62
2023/04/26 10:24:52;;;;;;;11.55;5.00;;;;;;;19.90;45.48;96322.34;4963919;28;20078;-62
2023/04/26 10:27:49;;;;;;;6.03;3.70;;;;;;;19.33;44.23;96321.00;4957176;28;20113;-59
2023/04/26 10:30:18;;;;;;;8.65;4.15;;;;;;;19.01;46.71;96319.91;4955357;28;20083;-62
2023/04/26 10:33:13;;;;;;;13.57;5.97;;;;;;;18.90;46.63;96322.16;4956339;28;20085;-63
2023/04/26 10:36:04;;;;;;;20.98;10.23;;;;;;;19.19;47.19;96329.00;4948205;28;20501;-62
2023/04/26 10:38:33;;;;;;;20.60;9.07;;;;;;;19.02;47.14;96325.06;4951816;28;20682;-62
2023/04/26 10:41:30;;;;;;;13.32;6.78;;;;;;;19.13;48.31;96326.31;4948852;28;20074;-62
2023/04/26 10:44:19;;;;;;;13.18;5.97;;;;;;;19.31;47.67;96323.09;4954153;28;20557;-62
2023/04/26 10:46:51;;;;;;;15.93;8.50;;;;;;;18.59;45.02;96319.09;4954107;28;20086;-62
2023/04/26 10:49:21;;;;;;;7.07;3.40;;;;;;;19.21;43.95;96316.28;4943398;28;20102;-62
2023/04/26 10:52:21;;;;;;;12.40;5.70;;;;;;;19.28;43.50;96310.13;4947888;28;20087;-62
2023/04/26 10:54:55;;;;;;;18.63;9.32;;;;;;;17.56;46.53;96316.13;4904748;28;20091;-60
2023/04/26 10:57:25;;;;;;;16.05;10.18;;;;;;;18.22;47.80;96311.31;4947041;28;20094;-61
2023/04/26 11:00:30;;;;;;;20.15;10.95;;;;;;;18.23;44.56;96306.78;4942114;28;20098;-61
2023/04/26 11:03:05;;;;;;;19.42;13.15;;;;;;;17.99;47.75;96303.53;4949437;28;20578;-62
2023/04/26 11:05:42;;;;;;;27.48;18.17;;;;;;;17.76;48.54;96311.81;4952527;28;20086;-61
2023/04/26 11:08:16;;;;;;;67.25;31.77;;;;;;;18.40;45.54;96304.63;4941968;28;20086;-62
2023/04/26 11:10:49;;;;;;;26.67;13.00;;;;;;;18.45;43.96;96296.84;4947529;28;20543;-62
2023/04/26 11:13:18;;;;;;;11.95;5.20;;;;;;;19.14;44.52;96291.38;4952313;28;20083;-62
2023/04/26 11:15:52;;;;;;;26.40;12.55;;;;;;;18.86;46.40;96283.50;4949690;28;20351;-60
2023/04/26 11:18:21;;;;;;;20.25;10.18;;;;;;;18.12;45.67;96292.16;4953671;28;20093;-59
2023/04/26 11:20:49;;;;;;;15.57;7.72;;;;;;;18.90;46.32;96286.59;4946700;28;20090;-63
2023/04/26 11:23:18;;;;;;;20.75;9.15;;;;;;;19.43;42.08;96275.97;4945131;28;20093;-62
2023/04/26 11:25:47;;;;;;;54.65;36.85;;;;;;;18.91;42.48;96273.00;4944315;28;20079;-62
2023/04/26 11:28:15;;;;;;;26.35;20.63;;;;;;;19.77;42.84;96269.63;4949828;28;20167;-63
2023/04/26 11:30:44;;;;;;;57.92;40.17;;;;;;;19.49;41.30;96264.47;4946115;28;20102;-61